KPBG/PBG METAR and TAF weather

Enter ICAO airport designator
Station Type Date Time Source
KPBG METAR 2022/01/29 00:53 UTC NOAA

KPBG 290053Z AUTO 32007KT 10SM CLR M17/M24 A3031 RMK AO2 SLP268 T11721244


Station Type Date Time Source
KPBG Decoded METAR 2022/01/29 00:53 UTC NOAA

PLATTSBURGH INTERNATIONAL AIRPORT, NY, United States (KPBG) 44-39N 073-28W
Jan 28, 2022 - 07:53 PM EST / 2022.01.29 0053 UTC
Wind: from the NW (320 degrees) at 8 MPH (7 KT):0
Visibility: 10 mile(s):0
Sky conditions: clear
Temperature: 1.0 F (-17.2 C)
Windchill: -13 F (-25 C):2
Dew Point: -11.9 F (-24.4 C)
Relative Humidity: 53%
Pressure (altimeter): 30.31 in. Hg (1026 hPa)
ob: KPBG 290053Z AUTO 32007KT 10SM CLR M17/M24 A3031 RMK AO2 SLP268 T11721244
cycle: 1

Station Type Date Time Source
KPBG TAF 2022/01/28 18:30 UTC NOAA

TAF KPBG 281724Z 2818/2918 36015KT P6SM BKN045 BKN200
FM282200 01011KT P6SM FEW045 BKN200
FM290300 35007KT P6SM SCT200
FM291000 35010KT P6SM BKN150
FM291500 35014KT P6SM OVC200

Example: see airport list